sensor_id;sensor_type;location;lat;lon;timestamp;P1;durP1;ratioP1;P2;durP2;ratioP2
48040;SDS011;33815;48.386;11.738;2023-03-25T00:00:19;1.77;;;1.65;;
48040;SDS011;33815;48.386;11.738;2023-03-25T00:02:46;2.72;;;1.63;;
48040;SDS011;33815;48.386;11.738;2023-03-25T00:05:13;2.05;;;1.23;;
48040;SDS011;33815;48.386;11.738;2023-03-25T00:07:43;1.10;;;1.10;;
48040;SDS011;33815;48.386;11.738;2023-03-25T00:10:10;1.70;;;1.40;;
48040;SDS011;33815;48.386;11.738;2023-03-25T00:12:37;1.30;;;1.20;;
48040;SDS011;33815;48.386;11.738;2023-03-25T00:15:03;1.23;;;1.08;;
48040;SDS011;33815;48.386;11.738;2023-03-25T00:17:30;4.57;;;1.30;;
48040;SDS011;33815;48.386;11.738;2023-03-25T00:19:55;2.22;;;1.58;;
48040;SDS011;33815;48.386;11.738;2023-03-25T00:22:21;3.25;;;1.30;;
48040;SDS011;33815;48.386;11.738;2023-03-25T00:24:47;3.33;;;1.45;;
48040;SDS011;33815;48.386;11.738;2023-03-25T00:27:13;3.45;;;1.23;;
48040;SDS011;33815;48.386;11.738;2023-03-25T00:29:41;1.92;;;1.10;;
48040;SDS011;33815;48.386;11.738;2023-03-25T00:32:07;3.10;;;1.65;;
48040;SDS011;33815;48.386;11.738;2023-03-25T00:34:33;1.13;;;1.10;;
48040;SDS011;33815;48.386;11.738;2023-03-25T00:37:05;1.70;;;1.20;;
48040;SDS011;33815;48.386;11.738;2023-03-25T00:39:34;1.00;;;1.00;;
48040;SDS011;33815;48.386;11.738;2023-03-25T00:42:00;0.90;;;0.90;;
48040;SDS011;33815;48.386;11.738;2023-03-25T00:44:27;1.13;;;1.05;;
48040;SDS011;33815;48.386;11.738;2023-03-25T00:46:53;1.48;;;1.25;;
48040;SDS011;33815;48.386;11.738;2023-03-25T00:49:18;1.50;;;1.20;;
48040;SDS011;33815;48.386;11.738;2023-03-25T00:51:43;2.85;;;0.80;;
48040;SDS011;33815;48.386;11.738;2023-03-25T00:54:09;1.23;;;1.13;;
48040;SDS011;33815;48.386;11.738;2023-03-25T00:56:35;1.33;;;1.23;;
48040;SDS011;33815;48.386;11.738;2023-03-25T00:59:02;1.13;;;1.08;;
48040;SDS011;33815;48.386;11.738;2023-03-25T01:01:27;4.53;;;1.10;;
48040;SDS011;33815;48.386;11.738;2023-03-25T01:03:56;1.52;;;1.05;;
48040;SDS011;33815;48.386;11.738;2023-03-25T01:06:24;4.50;;;2.22;;
48040;SDS011;33815;48.386;11.738;2023-03-25T01:08:52;3.15;;;1.20;;
48040;SDS011;33815;48.386;11.738;2023-03-25T01:11:20;1.48;;;1.35;;
48040;SDS011;33815;48.386;11.738;2023-03-25T01:13:47;1.02;;;1.00;;
48040;SDS011;33815;48.386;11.738;2023-03-25T01:16:12;2.00;;;1.23;;
48040;SDS011;33815;48.386;11.738;2023-03-25T01:18:39;1.50;;;0.90;;
48040;SDS011;33815;48.386;11.738;2023-03-25T01:21:05;2.30;;;1.02;;
48040;SDS011;33815;48.386;11.738;2023-03-25T01:23:31;1.33;;;1.15;;
48040;SDS011;33815;48.386;11.738;2023-03-25T01:25:57;2.25;;;0.93;;
48040;SDS011;33815;48.386;11.738;2023-03-25T01:28:22;2.05;;;1.10;;
48040;SDS011;33815;48.386;11.738;2023-03-25T01:30:48;4.13;;;1.20;;
48040;SDS011;33815;48.386;11.738;2023-03-25T01:33:13;2.70;;;1.30;;
48040;SDS011;33815;48.386;11.738;2023-03-25T01:35:38;1.55;;;1.20;;
48040;SDS011;33815;48.386;11.738;2023-03-25T01:38:04;2.35;;;1.13;;
48040;SDS011;33815;48.386;11.738;2023-03-25T01:40:29;1.27;;;0.90;;
48040;SDS011;33815;48.386;11.738;2023-03-25T01:42:55;6.20;;;1.20;;
48040;SDS011;33815;48.386;11.738;2023-03-25T01:45:30;1.27;;;0.95;;
48040;SDS011;33815;48.386;11.738;2023-03-25T01:50:37;1.38;;;1.15;;
48040;SDS011;33815;48.386;11.738;2023-03-25T01:53:06;2.85;;;1.20;;
48040;SDS011;33815;48.386;11.738;2023-03-25T01:55:33;1.58;;;1.13;;
48040;SDS011;33815;48.386;11.738;2023-03-25T01:58:00;1.77;;;0.90;;
48040;SDS011;33815;48.386;11.738;2023-03-25T02:00:31;1.30;;;1.20;;
48040;SDS011;33815;48.386;11.738;2023-03-25T02:02:58;1.52;;;1.10;;
48040;SDS011;33815;48.386;11.738;2023-03-25T02:07:56;0.98;;;0.93;;
48040;SDS011;33815;48.386;11.738;2023-03-25T02:10:23;4.03;;;1.75;;
48040;SDS011;33815;48.386;11.738;2023-03-25T02:12:48;1.65;;;0.90;;
48040;SDS011;33815;48.386;11.738;2023-03-25T02:15:14;1.13;;;0.80;;
48040;SDS011;33815;48.386;11.738;2023-03-25T02:23:32;0.93;;;0.93;;
48040;SDS011;33815;48.386;11.738;2023-03-25T02:29:40;2.60;;;1.20;;
48040;SDS011;33815;48.386;11.738;2023-03-25T02:41:19;2.10;;;0.97;;
48040;SDS011;33815;48.386;11.738;2023-03-25T02:46:25;0.80;;;0.80;;
48040;SDS011;33815;48.386;11.738;2023-03-25T02:48:56;0.70;;;0.70;;
48040;SDS011;33815;48.386;11.738;2023-03-25T02:51:34;2.20;;;1.20;;
48040;SDS011;33815;48.386;11.738;2023-03-25T02:54:05;2.85;;;1.00;;
48040;SDS011;33815;48.386;11.738;2023-03-25T02:56:35;1.58;;;1.00;;
48040;SDS011;33815;48.386;11.738;2023-03-25T02:59:01;1.98;;;0.93;;
48040;SDS011;33815;48.386;11.738;2023-03-25T03:01:28;1.95;;;0.95;;
48040;SDS011;33815;48.386;11.738;2023-03-25T03:03:54;2.55;;;0.82;;
48040;SDS011;33815;48.386;11.738;2023-03-25T03:06:20;4.30;;;1.17;;
48040;SDS011;33815;48.386;11.738;2023-03-25T03:11:18;4.43;;;1.00;;
48040;SDS011;33815;48.386;11.738;2023-03-25T03:16:41;2.55;;;1.10;;
48040;SDS011;33815;48.386;11.738;2023-03-25T03:22:02;5.13;;;1.25;;
48040;SDS011;33815;48.386;11.738;2023-03-25T03:24:45;1.40;;;0.95;;
48040;SDS011;33815;48.386;11.738;2023-03-25T03:30:12;2.97;;;1.00;;
48040;SDS011;33815;48.386;11.738;2023-03-25T03:32:47;1.05;;;1.00;;
48040;SDS011;33815;48.386;11.738;2023-03-25T03:35:32;2.70;;;1.00;;
48040;SDS011;33815;48.386;11.738;2023-03-25T03:38:05;1.02;;;0.80;;
48040;SDS011;33815;48.386;11.738;2023-03-25T03:40:35;1.75;;;0.90;;
48040;SDS011;33815;48.386;11.738;2023-03-25T03:43:08;2.20;;;0.75;;
48040;SDS011;33815;48.386;11.738;2023-03-25T03:45:41;1.83;;;1.10;;
48040;SDS011;33815;48.386;11.738;2023-03-25T03:48:14;0.82;;;0.82;;
48040;SDS011;33815;48.386;11.738;2023-03-25T03:50:50;3.30;;;0.98;;
48040;SDS011;33815;48.386;11.738;2023-03-25T03:53:22;1.25;;;0.93;;
48040;SDS011;33815;48.386;11.738;2023-03-25T03:55:57;2.38;;;0.98;;
48040;SDS011;33815;48.386;11.738;2023-03-25T03:58:33;3.20;;;1.02;;
48040;SDS011;33815;48.386;11.738;2023-03-25T04:03:36;4.47;;;1.27;;
48040;SDS011;33815;48.386;11.738;2023-03-25T04:06:18;1.65;;;0.80;;
48040;SDS011;33815;48.386;11.738;2023-03-25T04:08:52;3.28;;;1.27;;
48040;SDS011;33815;48.386;11.738;2023-03-25T04:11:25;2.22;;;1.50;;
48040;SDS011;33815;48.386;11.738;2023-03-25T04:13:56;2.85;;;0.88;;
48040;SDS011;33815;48.386;11.738;2023-03-25T04:16:24;2.55;;;1.00;;
48040;SDS011;33815;48.386;11.738;2023-03-25T04:18:50;2.03;;;1.30;;
48040;SDS011;33815;48.386;11.738;2023-03-25T04:21:17;5.65;;;2.08;;
48040;SDS011;33815;48.386;11.738;2023-03-25T04:23:43;0.88;;;0.80;;
48040;SDS011;33815;48.386;11.738;2023-03-25T04:26:10;4.43;;;1.17;;
48040;SDS011;33815;48.386;11.738;2023-03-25T04:28:36;4.15;;;0.90;;
48040;SDS011;33815;48.386;11.738;2023-03-25T04:31:01;2.10;;;1.10;;
48040;SDS011;33815;48.386;11.738;2023-03-25T04:33:30;4.35;;;1.02;;
48040;SDS011;33815;48.386;11.738;2023-03-25T04:35:55;1.35;;;1.25;;
48040;SDS011;33815;48.386;11.738;2023-03-25T04:38:21;3.33;;;1.08;;
48040;SDS011;33815;48.386;11.738;2023-03-25T04:40:46;1.98;;;1.00;;
48040;SDS011;33815;48.386;11.738;2023-03-25T04:43:15;5.93;;;1.00;;
48040;SDS011;33815;48.386;11.738;2023-03-25T04:45:42;3.72;;;1.00;;
48040;SDS011;33815;48.386;11.738;2023-03-25T04:48:23;3.72;;;1.92;;
48040;SDS011;33815;48.386;11.738;2023-03-25T04:50:54;3.78;;;1.10;;
48040;SDS011;33815;48.386;11.738;2023-03-25T04:53:26;0.95;;;0.93;;
48040;SDS011;33815;48.386;11.738;2023-03-25T04:55:52;1.38;;;1.17;;
48040;SDS011;33815;48.386;11.738;2023-03-25T04:58:19;2.55;;;0.80;;
48040;SDS011;33815;48.386;11.738;2023-03-25T05:00:44;1.70;;;0.70;;
48040;SDS011;33815;48.386;11.738;2023-03-25T05:03:14;2.40;;;0.90;;
48040;SDS011;33815;48.386;11.738;2023-03-25T05:05:40;1.35;;;0.77;;
48040;SDS011;33815;48.386;11.738;2023-03-25T05:08:05;2.28;;;0.95;;
48040;SDS011;33815;48.386;11.738;2023-03-25T05:10:31;3.70;;;1.50;;
48040;SDS011;33815;48.386;11.738;2023-03-25T05:12:58;5.93;;;1.63;;
48040;SDS011;33815;48.386;11.738;2023-03-25T05:15:24;2.80;;;0.77;;
48040;SDS011;33815;48.386;11.738;2023-03-25T05:17:50;2.45;;;1.25;;
48040;SDS011;33815;48.386;11.738;2023-03-25T05:20:16;1.70;;;1.25;;
48040;SDS011;33815;48.386;11.738;2023-03-25T05:22:41;3.72;;;0.95;;
48040;SDS011;33815;48.386;11.738;2023-03-25T05:25:07;1.67;;;0.85;;
48040;SDS011;33815;48.386;11.738;2023-03-25T05:27:34;3.90;;;1.10;;
48040;SDS011;33815;48.386;11.738;2023-03-25T05:30:00;3.97;;;1.00;;
48040;SDS011;33815;48.386;11.738;2023-03-25T05:32:26;4.47;;;1.02;;
48040;SDS011;33815;48.386;11.738;2023-03-25T05:34:57;1.70;;;1.00;;
48040;SDS011;33815;48.386;11.738;2023-03-25T05:37:23;3.20;;;1.00;;
48040;SDS011;33815;48.386;11.738;2023-03-25T05:39:49;4.60;;;0.90;;
48040;SDS011;33815;48.386;11.738;2023-03-25T05:42:15;4.70;;;1.10;;
48040;SDS011;33815;48.386;11.738;2023-03-25T05:44:41;3.80;;;1.10;;
48040;SDS011;33815;48.386;11.738;2023-03-25T05:47:18;2.72;;;0.80;;
48040;SDS011;33815;48.386;11.738;2023-03-25T05:49:47;2.53;;;1.05;;
48040;SDS011;33815;48.386;11.738;2023-03-25T05:52:13;2.53;;;0.80;;
48040;SDS011;33815;48.386;11.738;2023-03-25T05:54:41;3.22;;;0.93;;
48040;SDS011;33815;48.386;11.738;2023-03-25T05:57:07;6.45;;;1.63;;
48040;SDS011;33815;48.386;11.738;2023-03-25T05:59:32;1.83;;;0.80;;
48040;SDS011;33815;48.386;11.738;2023-03-25T06:01:58;2.92;;;0.82;;
48040;SDS011;33815;48.386;11.738;2023-03-25T06:04:24;1.95;;;0.80;;
48040;SDS011;33815;48.386;11.738;2023-03-25T06:06:49;4.38;;;1.10;;
48040;SDS011;33815;48.386;11.738;2023-03-25T06:09:14;0.90;;;0.90;;
48040;SDS011;33815;48.386;11.738;2023-03-25T06:11:42;3.20;;;1.10;;
48040;SDS011;33815;48.386;11.738;2023-03-25T06:14:07;3.50;;;0.98;;
48040;SDS011;33815;48.386;11.738;2023-03-25T06:16:33;1.35;;;0.70;;
48040;SDS011;33815;48.386;11.738;2023-03-25T06:18:59;1.55;;;0.98;;
48040;SDS011;33815;48.386;11.738;2023-03-25T06:21:26;2.65;;;0.82;;
48040;SDS011;33815;48.386;11.738;2023-03-25T06:23:58;4.18;;;0.93;;
48040;SDS011;33815;48.386;11.738;2023-03-25T06:26:25;1.80;;;0.75;;
48040;SDS011;33815;48.386;11.738;2023-03-25T06:28:51;1.60;;;1.50;;
48040;SDS011;33815;48.386;11.738;2023-03-25T06:31:18;2.75;;;0.70;;
48040;SDS011;33815;48.386;11.738;2023-03-25T06:33:47;1.42;;;0.60;;
48040;SDS011;33815;48.386;11.738;2023-03-25T06:36:14;1.10;;;0.70;;
48040;SDS011;33815;48.386;11.738;2023-03-25T06:38:48;0.77;;;0.65;;
48040;SDS011;33815;48.386;11.738;2023-03-25T06:41:14;1.73;;;0.75;;
48040;SDS011;33815;48.386;11.738;2023-03-25T06:43:44;1.05;;;0.68;;
48040;SDS011;33815;48.386;11.738;2023-03-25T06:46:10;1.95;;;0.80;;
48040;SDS011;33815;48.386;11.738;2023-03-25T06:48:35;0.60;;;0.60;;
48040;SDS011;33815;48.386;11.738;2023-03-25T06:51:01;0.87;;;0.70;;
48040;SDS011;33815;48.386;11.738;2023-03-25T06:53:26;0.93;;;0.93;;
48040;SDS011;33815;48.386;11.738;2023-03-25T06:55:51;1.15;;;0.80;;
48040;SDS011;33815;48.386;11.738;2023-03-25T06:58:17;2.17;;;0.90;;
48040;SDS011;33815;48.386;11.738;2023-03-25T07:00:42;1.70;;;0.70;;
48040;SDS011;33815;48.386;11.738;2023-03-25T07:03:08;1.42;;;0.80;;
48040;SDS011;33815;48.386;11.738;2023-03-25T07:05:34;0.50;;;0.50;;
48040;SDS011;33815;48.386;11.738;2023-03-25T07:08:00;1.40;;;0.80;;
48040;SDS011;33815;48.386;11.738;2023-03-25T07:10:25;0.43;;;0.43;;
48040;SDS011;33815;48.386;11.738;2023-03-25T07:12:50;1.70;;;0.60;;
48040;SDS011;33815;48.386;11.738;2023-03-25T07:15:16;0.60;;;0.60;;
48040;SDS011;33815;48.386;11.738;2023-03-25T07:17:41;0.60;;;0.60;;
48040;SDS011;33815;48.386;11.738;2023-03-25T07:20:07;1.00;;;0.60;;
48040;SDS011;33815;48.386;11.738;2023-03-25T07:22:32;1.20;;;0.70;;
48040;SDS011;33815;48.386;11.738;2023-03-25T07:24:58;0.60;;;0.60;;
48040;SDS011;33815;48.386;11.738;2023-03-25T07:27:23;1.48;;;0.80;;
48040;SDS011;33815;48.386;11.738;2023-03-25T07:29:49;1.38;;;0.60;;
48040;SDS011;33815;48.386;11.738;2023-03-25T07:32:14;0.68;;;0.60;;
48040;SDS011;33815;48.386;11.738;2023-03-25T07:34:40;0.60;;;0.60;;
48040;SDS011;33815;48.386;11.738;2023-03-25T07:37:05;1.55;;;0.50;;
48040;SDS011;33815;48.386;11.738;2023-03-25T07:39:32;0.82;;;0.70;;
48040;SDS011;33815;48.386;11.738;2023-03-25T07:41:57;1.23;;;0.70;;
48040;SDS011;33815;48.386;11.738;2023-03-25T07:44:22;0.60;;;0.60;;
48040;SDS011;33815;48.386;11.738;2023-03-25T07:46:48;0.70;;;0.70;;
48040;SDS011;33815;48.386;11.738;2023-03-25T07:49:14;4.05;;;0.82;;
48040;SDS011;33815;48.386;11.738;2023-03-25T07:51:40;4.22;;;0.65;;
48040;SDS011;33815;48.386;11.738;2023-03-25T07:54:06;0.90;;;0.63;;
48040;SDS011;33815;48.386;11.738;2023-03-25T07:56:31;0.77;;;0.60;;
48040;SDS011;33815;48.386;11.738;2023-03-25T07:58:57;0.88;;;0.80;;
48040;SDS011;33815;48.386;11.738;2023-03-25T08:01:22;1.83;;;0.70;;
48040;SDS011;33815;48.386;11.738;2023-03-25T08:03:47;1.27;;;0.60;;
48040;SDS011;33815;48.386;11.738;2023-03-25T08:06:13;0.63;;;0.63;;
48040;SDS011;33815;48.386;11.738;2023-03-25T08:08:38;1.60;;;0.80;;
48040;SDS011;33815;48.386;11.738;2023-03-25T08:11:04;1.10;;;0.70;;
48040;SDS011;33815;48.386;11.738;2023-03-25T08:13:30;0.77;;;0.77;;
48040;SDS011;33815;48.386;11.738;2023-03-25T08:15:55;0.98;;;0.65;;
48040;SDS011;33815;48.386;11.738;2023-03-25T08:18:21;0.75;;;0.70;;
48040;SDS011;33815;48.386;11.738;2023-03-25T08:20:49;4.72;;;0.90;;
48040;SDS011;33815;48.386;11.738;2023-03-25T08:23:15;0.85;;;0.55;;
48040;SDS011;33815;48.386;11.738;2023-03-25T08:25:44;1.42;;;0.73;;
48040;SDS011;33815;48.386;11.738;2023-03-25T08:28:13;1.67;;;0.70;;
48040;SDS011;33815;48.386;11.738;2023-03-25T08:30:41;3.78;;;1.27;;
48040;SDS011;33815;48.386;11.738;2023-03-25T08:33:07;2.85;;;0.80;;
48040;SDS011;33815;48.386;11.738;2023-03-25T08:35:34;1.42;;;0.70;;
48040;SDS011;33815;48.386;11.738;2023-03-25T08:38:00;7.28;;;1.00;;
48040;SDS011;33815;48.386;11.738;2023-03-25T08:40:29;0.77;;;0.77;;
48040;SDS011;33815;48.386;11.738;2023-03-25T08:42:54;2.30;;;0.80;;
48040;SDS011;33815;48.386;11.738;2023-03-25T08:45:20;1.17;;;0.70;;
48040;SDS011;33815;48.386;11.738;2023-03-25T08:47:45;1.33;;;1.00;;
48040;SDS011;33815;48.386;11.738;2023-03-25T08:50:11;2.42;;;0.88;;
48040;SDS011;33815;48.386;11.738;2023-03-25T08:52:36;5.35;;;1.02;;
48040;SDS011;33815;48.386;11.738;2023-03-25T08:55:02;3.13;;;0.80;;
48040;SDS011;33815;48.386;11.738;2023-03-25T08:57:29;4.03;;;0.60;;
48040;SDS011;33815;48.386;11.738;2023-03-25T08:59:54;1.60;;;0.70;;
48040;SDS011;33815;48.386;11.738;2023-03-25T09:02:19;2.50;;;0.95;;
48040;SDS011;33815;48.386;11.738;2023-03-25T09:04:46;2.70;;;0.80;;
48040;SDS011;33815;48.386;11.738;2023-03-25T09:07:12;3.38;;;1.00;;
48040;SDS011;33815;48.386;11.738;2023-03-25T09:09:38;0.88;;;0.50;;
48040;SDS011;33815;48.386;11.738;2023-03-25T09:12:06;0.50;;;0.50;;
48040;SDS011;33815;48.386;11.738;2023-03-25T09:14:32;1.30;;;0.47;;
48040;SDS011;33815;48.386;11.738;2023-03-25T09:16:57;0.40;;;0.40;;
48040;SDS011;33815;48.386;11.738;2023-03-25T09:19:23;1.23;;;0.63;;
48040;SDS011;33815;48.386;11.738;2023-03-25T09:21:48;0.80;;;0.80;;
48040;SDS011;33815;48.386;11.738;2023-03-25T09:24:14;0.50;;;0.50;;
48040;SDS011;33815;48.386;11.738;2023-03-25T09:26:39;0.65;;;0.50;;
48040;SDS011;33815;48.386;11.738;2023-03-25T09:29:04;1.00;;;0.60;;
48040;SDS011;33815;48.386;11.738;2023-03-25T09:31:30;0.68;;;0.60;;
48040;SDS011;33815;48.386;11.738;2023-03-25T09:33:55;0.82;;;0.50;;
48040;SDS011;33815;48.386;11.738;2023-03-25T09:36:21;0.97;;;0.60;;
48040;SDS011;33815;48.386;11.738;2023-03-25T09:38:46;0.32;;;0.32;;
48040;SDS011;33815;48.386;11.738;2023-03-25T09:41:22;1.60;;;0.40;;
48040;SDS011;33815;48.386;11.738;2023-03-25T09:46:45;0.85;;;0.40;;
48040;SDS011;33815;48.386;11.738;2023-03-25T09:49:19;0.90;;;0.45;;
48040;SDS011;33815;48.386;11.738;2023-03-25T09:51:48;0.50;;;0.50;;
48040;SDS011;33815;48.386;11.738;2023-03-25T09:54:21;0.98;;;0.52;;
48040;SDS011;33815;48.386;11.738;2023-03-25T09:56:52;1.02;;;0.40;;
48040;SDS011;33815;48.386;11.738;2023-03-25T09:59:24;0.65;;;0.52;;
48040;SDS011;33815;48.386;11.738;2023-03-25T10:02:16;0.98;;;0.73;;
48040;SDS011;33815;48.386;11.738;2023-03-25T10:05:02;0.50;;;0.50;;
48040;SDS011;33815;48.386;11.738;2023-03-25T10:07:43;0.55;;;0.40;;
48040;SDS011;33815;48.386;11.738;2023-03-25T10:10:16;1.95;;;0.70;;
48040;SDS011;33815;48.386;11.738;2023-03-25T10:15:31;0.60;;;0.60;;
48040;SDS011;33815;48.386;11.738;2023-03-25T10:18:13;0.88;;;0.50;;
48040;SDS011;33815;48.386;11.738;2023-03-25T10:20:58;0.73;;;0.60;;
48040;SDS011;33815;48.386;11.738;2023-03-25T10:23:33;1.10;;;0.50;;
48040;SDS011;33815;48.386;11.738;2023-03-25T10:26:08;1.40;;;0.50;;
48040;SDS011;33815;48.386;11.738;2023-03-25T10:28:40;1.60;;;0.70;;
48040;SDS011;33815;48.386;11.738;2023-03-25T10:31:15;1.27;;;0.75;;
48040;SDS011;33815;48.386;11.738;2023-03-25T10:33:50;0.40;;;0.40;;
48040;SDS011;33815;48.386;11.738;2023-03-25T10:36:18;7.65;;;1.20;;
48040;SDS011;33815;48.386;11.738;2023-03-25T10:38:52;0.70;;;0.60;;
48040;SDS011;33815;48.386;11.738;2023-03-25T10:41:21;1.05;;;0.82;;
48040;SDS011;33815;48.386;11.738;2023-03-25T10:43:49;1.40;;;0.77;;
48040;SDS011;33815;48.386;11.738;2023-03-25T10:46:25;0.63;;;0.60;;
48040;SDS011;33815;48.386;11.738;2023-03-25T10:49:03;2.17;;;0.73;;
48040;SDS011;33815;48.386;11.738;2023-03-25T10:51:29;1.67;;;0.70;;
48040;SDS011;33815;48.386;11.738;2023-03-25T10:53:57;2.63;;;0.80;;
48040;SDS011;33815;48.386;11.738;2023-03-25T10:56:24;11.52;;;1.27;;
48040;SDS011;33815;48.386;11.738;2023-03-25T10:58:54;0.55;;;0.40;;
48040;SDS011;33815;48.386;11.738;2023-03-25T11:01:31;0.40;;;0.40;;
48040;SDS011;33815;48.386;11.738;2023-03-25T11:04:00;1.95;;;0.70;;
48040;SDS011;33815;48.386;11.738;2023-03-25T11:06:29;1.52;;;0.50;;
48040;SDS011;33815;48.386;11.738;2023-03-25T11:11:32;0.65;;;0.40;;
48040;SDS011;33815;48.386;11.738;2023-03-25T11:13:59;3.72;;;0.60;;
48040;SDS011;33815;48.386;11.738;2023-03-25T11:16:29;0.68;;;0.50;;
48040;SDS011;33815;48.386;11.738;2023-03-25T11:18:59;1.13;;;0.43;;
48040;SDS011;33815;48.386;11.738;2023-03-25T11:21:25;1.83;;;0.70;;
48040;SDS011;33815;48.386;11.738;2023-03-25T11:23:56;1.17;;;0.50;;
48040;SDS011;33815;48.386;11.738;2023-03-25T11:26:25;2.47;;;0.52;;
48040;SDS011;33815;48.386;11.738;2023-03-25T11:28:55;1.48;;;0.60;;
48040;SDS011;33815;48.386;11.738;2023-03-25T11:31:25;3.63;;;1.60;;
48040;SDS011;33815;48.386;11.738;2023-03-25T11:36:34;0.63;;;0.50;;
48040;SDS011;33815;48.386;11.738;2023-03-25T11:39:08;0.30;;;0.30;;
48040;SDS011;33815;48.386;11.738;2023-03-25T11:41:40;5.70;;;0.40;;
48040;SDS011;33815;48.386;11.738;2023-03-25T11:44:05;0.40;;;0.40;;
48040;SDS011;33815;48.386;11.738;2023-03-25T11:46:31;0.98;;;0.40;;
48040;SDS011;33815;48.386;11.738;2023-03-25T11:49:06;0.40;;;0.40;;
48040;SDS011;33815;48.386;11.738;2023-03-25T11:51:33;0.70;;;0.40;;
48040;SDS011;33815;48.386;11.738;2023-03-25T11:54:01;0.40;;;0.40;;
48040;SDS011;33815;48.386;11.738;2023-03-25T11:56:31;0.93;;;0.60;;
48040;SDS011;33815;48.386;11.738;2023-03-25T11:59:00;0.55;;;0.50;;
48040;SDS011;33815;48.386;11.738;2023-03-25T12:01:37;0.47;;;0.38;;
48040;SDS011;33815;48.386;11.738;2023-03-25T12:04:21;0.43;;;0.43;;
48040;SDS011;33815;48.386;11.738;2023-03-25T12:07:03;0.75;;;0.50;;
48040;SDS011;33815;48.386;11.738;2023-03-25T12:09:32;1.08;;;0.30;;
48040;SDS011;33815;48.386;11.738;2023-03-25T12:12:09;0.60;;;0.60;;
48040;SDS011;33815;48.386;11.738;2023-03-25T12:17:31;0.30;;;0.30;;
48040;SDS011;33815;48.386;11.738;2023-03-25T12:20:17;5.93;;;0.30;;
48040;SDS011;33815;48.386;11.738;2023-03-25T12:22:59;0.50;;;0.30;;
48040;SDS011;33815;48.386;11.738;2023-03-25T12:34:07;0.30;;;0.30;;
48040;SDS011;33815;48.386;11.738;2023-03-25T12:42:09;0.40;;;0.32;;
48040;SDS011;33815;48.386;11.738;2023-03-25T12:47:38;0.30;;;0.30;;
48040;SDS011;33815;48.386;11.738;2023-03-25T12:55:41;0.40;;;0.40;;
48040;SDS011;33815;48.386;11.738;2023-03-25T12:58:29;0.70;;;0.40;;
48040;SDS011;33815;48.386;11.738;2023-03-25T13:01:08;0.40;;;0.40;;
48040;SDS011;33815;48.386;11.738;2023-03-25T13:04:46;0.45;;;0.30;;
48040;SDS011;33815;48.386;11.738;2023-03-25T13:09:33;2.25;;;0.57;;
48040;SDS011;33815;48.386;11.738;2023-03-25T13:12:27;1.85;;;0.70;;
48040;SDS011;33815;48.386;11.738;2023-03-25T13:17:58;0.57;;;0.50;;
48040;SDS011;33815;48.386;11.738;2023-03-25T13:20:25;0.50;;;0.50;;
48040;SDS011;33815;48.386;11.738;2023-03-25T13:22:54;1.35;;;0.40;;
48040;SDS011;33815;48.386;11.738;2023-03-25T13:25:30;0.50;;;0.50;;
48040;SDS011;33815;48.386;11.738;2023-03-25T13:28:02;0.30;;;0.30;;
48040;SDS011;33815;48.386;11.738;2023-03-25T13:30:32;0.30;;;0.30;;
48040;SDS011;33815;48.386;11.738;2023-03-25T13:36:46;0.43;;;0.40;;
48040;SDS011;33815;48.386;11.738;2023-03-25T13:38:55;0.40;;;0.40;;
48040;SDS011;33815;48.386;11.738;2023-03-25T13:41:43;0.30;;;0.30;;
48040;SDS011;33815;48.386;11.738;2023-03-25T13:44:27;1.23;;;0.57;;
48040;SDS011;33815;48.386;11.738;2023-03-25T13:47:00;0.40;;;0.40;;
48040;SDS011;33815;48.386;11.738;2023-03-25T13:52:06;0.40;;;0.40;;
48040;SDS011;33815;48.386;11.738;2023-03-25T13:54:40;0.65;;;0.40;;
48040;SDS011;33815;48.386;11.738;2023-03-25T14:00:51;0.35;;;0.35;;
48040;SDS011;33815;48.386;11.738;2023-03-25T14:03:38;0.30;;;0.30;;
48040;SDS011;33815;48.386;11.738;2023-03-25T14:06:29;0.40;;;0.40;;
48040;SDS011;33815;48.386;11.738;2023-03-25T14:12:15;0.30;;;0.30;;
48040;SDS011;33815;48.386;11.738;2023-03-25T14:14:59;0.40;;;0.40;;
48040;SDS011;33815;48.386;11.738;2023-03-25T14:17:29;0.43;;;0.43;;
48040;SDS011;33815;48.386;11.738;2023-03-25T14:19:57;0.80;;;0.32;;
48040;SDS011;33815;48.386;11.738;2023-03-25T14:22:27;0.30;;;0.30;;
48040;SDS011;33815;48.386;11.738;2023-03-25T14:24:56;0.40;;;0.40;;
48040;SDS011;33815;48.386;11.738;2023-03-25T14:27:26;0.40;;;0.40;;
48040;SDS011;33815;48.386;11.738;2023-03-25T14:30:04;1.30;;;0.40;;
48040;SDS011;33815;48.386;11.738;2023-03-25T14:37:56;1.33;;;0.47;;
48040;SDS011;33815;48.386;11.738;2023-03-25T14:43:17;0.55;;;0.50;;
48040;SDS011;33815;48.386;11.738;2023-03-25T14:48:39;0.50;;;0.50;;
48040;SDS011;33815;48.386;11.738;2023-03-25T14:53:58;0.40;;;0.40;;
48040;SDS011;33815;48.386;11.738;2023-03-25T14:56:34;2.20;;;0.63;;
48040;SDS011;33815;48.386;11.738;2023-03-25T14:59:14;0.38;;;0.38;;
48040;SDS011;33815;48.386;11.738;2023-03-25T15:01:43;0.57;;;0.40;;
48040;SDS011;33815;48.386;11.738;2023-03-25T15:04:12;1.63;;;0.70;;
48040;SDS011;33815;48.386;11.738;2023-03-25T15:06:55;2.00;;;0.55;;
48040;SDS011;33815;48.386;11.738;2023-03-25T15:09:22;0.47;;;0.47;;
48040;SDS011;33815;48.386;11.738;2023-03-25T15:11:54;1.88;;;0.60;;
48040;SDS011;33815;48.386;11.738;2023-03-25T15:14:24;0.95;;;0.40;;
48040;SDS011;33815;48.386;11.738;2023-03-25T15:16:57;0.57;;;0.57;;
48040;SDS011;33815;48.386;11.738;2023-03-25T15:19:24;0.40;;;0.40;;
48040;SDS011;33815;48.386;11.738;2023-03-25T15:24:27;0.50;;;0.47;;
48040;SDS011;33815;48.386;11.738;2023-03-25T15:26:54;0.90;;;0.50;;
48040;SDS011;33815;48.386;11.738;2023-03-25T15:35:01;1.45;;;0.60;;
48040;SDS011;33815;48.386;11.738;2023-03-25T15:38:00;0.30;;;0.30;;
48040;SDS011;33815;48.386;11.738;2023-03-25T15:46:08;0.68;;;0.40;;
48040;SDS011;33815;48.386;11.738;2023-03-25T15:48:58;0.40;;;0.40;;
48040;SDS011;33815;48.386;11.738;2023-03-25T15:54:54;0.52;;;0.52;;
48040;SDS011;33815;48.386;11.738;2023-03-25T16:00:07;0.68;;;0.65;;
48040;SDS011;33815;48.386;11.738;2023-03-25T16:03:19;1.00;;;0.60;;
48040;SDS011;33815;48.386;11.738;2023-03-25T16:05:43;1.73;;;0.80;;
48040;SDS011;33815;48.386;11.738;2023-03-25T16:08:21;2.53;;;0.90;;
48040;SDS011;33815;48.386;11.738;2023-03-25T16:10:50;1.35;;;0.68;;
48040;SDS011;33815;48.386;11.738;2023-03-25T16:13:16;2.67;;;0.95;;
48040;SDS011;33815;48.386;11.738;2023-03-25T16:15:47;2.22;;;0.70;;
48040;SDS011;33815;48.386;11.738;2023-03-25T16:18:15;1.55;;;1.13;;
48040;SDS011;33815;48.386;11.738;2023-03-25T16:20:41;3.33;;;1.40;;
48040;SDS011;33815;48.386;11.738;2023-03-25T16:23:12;3.88;;;2.20;;
48040;SDS011;33815;48.386;11.738;2023-03-25T16:25:43;4.63;;;1.10;;
48040;SDS011;33815;48.386;11.738;2023-03-25T16:28:14;1.08;;;0.80;;
48040;SDS011;33815;48.386;11.738;2023-03-25T16:30:48;2.70;;;0.90;;
48040;SDS011;33815;48.386;11.738;2023-03-25T16:33:17;3.78;;;2.00;;
48040;SDS011;33815;48.386;11.738;2023-03-25T16:35:47;1.95;;;1.08;;
48040;SDS011;33815;48.386;11.738;2023-03-25T16:38:17;0.73;;;0.70;;
48040;SDS011;33815;48.386;11.738;2023-03-25T16:40:45;2.05;;;0.80;;
48040;SDS011;33815;48.386;11.738;2023-03-25T16:45:47;1.77;;;0.90;;
48040;SDS011;33815;48.386;11.738;2023-03-25T16:48:18;2.83;;;0.70;;
48040;SDS011;33815;48.386;11.738;2023-03-25T16:50:53;1.15;;;1.08;;
48040;SDS011;33815;48.386;11.738;2023-03-25T16:53:21;1.50;;;1.20;;
48040;SDS011;33815;48.386;11.738;2023-03-25T16:55:48;1.08;;;1.00;;
48040;SDS011;33815;48.386;11.738;2023-03-25T16:58:20;2.85;;;1.05;;